Time;durP1;ratioP1;P1;durP2;ratioP2;P2;SDS_P1;SDS_P2;PMS_P1;PMS_P2;Temp;Humidity;BMP_temperature;BMP_pressure;BME280_temperature;BME280_humidity;BME280_pressure;Samples;Min_cycle;Max_cycle;Signal;HPM_P1;HPM_P2
2021/12/23 00:02:00;;;;;;;50.35;23.88;;;;;;;;;;4993035;28;20053;-79
2021/12/23 00:04:27;;;;;;;53.38;22.42;;;;;;;;;;5004139;28;20037;-80
2021/12/23 00:06:53;;;;;;;56.30;23.05;;;;;;;;;;4997036;28;20078;-80
2021/12/23 00:09:20;;;;;;;55.03;23.85;;;;;;;;;;5002353;28;20105;-81
2021/12/23 00:11:46;;;;;;;61.80;24.63;;;;;;;;;;5004250;28;20053;-79
2021/12/23 00:14:13;;;;;;;51.75;23.20;;;;;;;;;;5005283;28;20045;-79
2021/12/23 00:17:06;;;;;;;57.30;22.73;;;;;;;;;;5035670;28;20018;-79
2021/12/23 00:24:38;;;;;;;54.53;22.67;;;;;;;;;;5004930;28;20045;-80
2021/12/23 00:27:05;;;;;;;52.35;21.98;;;;;;;;;;5010985;28;20041;-80
2021/12/23 00:29:31;;;;;;;55.58;23.83;;;;;;;;;;5024661;28;20150;-80
2021/12/23 00:31:57;;;;;;;48.10;22.23;;;;;;;;;;5005918;28;20149;-80
2021/12/23 00:34:24;;;;;;;49.83;21.25;;;;;;;;;;5007508;28;20117;-81
2021/12/23 00:36:51;;;;;;;50.80;23.95;;;;;;;;;;5002520;28;20418;-81
2021/12/23 00:39:17;;;;;;;53.33;22.35;;;;;;;;;;5007832;28;20033;-80
2021/12/23 00:44:02;;;;;;;49.70;21.80;;;;;;;;;;5091129;28;20924;-81
2021/12/23 00:46:28;;;;;;;56.75;22.42;;;;;;;;;;5080799;28;20024;-81
2021/12/23 00:48:54;;;;;;;52.75;21.35;;;;;;;;;;5080661;28;20029;-81
2021/12/23 00:51:20;;;;;;;56.60;22.92;;;;;;;;;;5094321;28;20048;-81
2021/12/23 00:53:49;;;;;;;46.60;21.77;;;;;;;;;;5080563;28;20552;-81
2021/12/23 00:56:15;;;;;;;50.47;22.55;;;;;;;;;;5079043;28;20550;-80
2021/12/23 00:58:41;;;;;;;45.78;21.58;;;;;;;;;;5080127;28;20029;-80
2021/12/23 01:01:08;;;;;;;57.63;24.33;;;;;;;;;;5081310;28;20549;-80
2021/12/23 01:03:34;;;;;;;55.97;23.80;;;;;;;;;;5078792;28;20063;-80
2021/12/23 01:06:01;;;;;;;52.15;22.30;;;;;;;;;;5079617;28;20032;-80
2021/12/23 01:08:27;;;;;;;53.20;22.27;;;;;;;;;;5080326;28;20017;-80
2021/12/23 01:10:56;;;;;;;53.40;23.40;;;;;;;;;;5078769;28;20033;-80
2021/12/23 01:13:26;;;;;;;57.45;22.85;;;;;;;;;;5080558;28;20043;-80
2021/12/23 01:16:13;;;;;;;49.47;22.13;;;;;;;;;;5092362;28;20048;-80
2021/12/23 01:18:46;;;;;;;53.40;22.33;;;;;;;;;;5079962;28;20047;-80
2021/12/23 01:21:16;;;;;;;45.92;21.73;;;;;;;;;;5080161;28;20033;-80
2021/12/23 01:23:44;;;;;;;40.17;17.92;;;;;;;;;;5080942;28;20050;-80
2021/12/23 01:26:10;;;;;;;49.55;22.45;;;;;;;;;;5080568;28;20051;-80
2021/12/23 01:28:36;;;;;;;53.60;21.88;;;;;;;;;;5081392;28;20054;-79
2021/12/23 01:31:02;;;;;;;52.03;22.48;;;;;;;;;;5082997;28;20089;-79
2021/12/23 01:33:28;;;;;;;50.50;23.17;;;;;;;;;;5076423;28;20115;-79
2021/12/23 01:35:54;;;;;;;53.67;22.75;;;;;;;;;;5070508;28;20024;-78
2021/12/23 01:38:20;;;;;;;54.13;23.95;;;;;;;;;;5069491;28;20480;-78
2021/12/23 01:40:46;;;;;;;54.78;23.42;;;;;;;;;;5069508;28;20039;-77
2021/12/23 01:43:13;;;;;;;50.00;21.45;;;;;;;;;;5071344;28;20445;-77
2021/12/23 01:45:43;;;;;;;55.60;24.15;;;;;;;;;;5072010;28;20062;-79
2021/12/23 01:48:10;;;;;;;53.00;22.27;;;;;;;;;;5073791;28;20085;-79
2021/12/23 01:50:37;;;;;;;58.92;24.52;;;;;;;;;;5083149;28;20023;-79
2021/12/23 01:53:03;;;;;;;58.92;24.90;;;;;;;;;;5085017;28;20044;-79
2021/12/23 01:55:29;;;;;;;50.15;22.95;;;;;;;;;;5061661;28;20112;-79
2021/12/23 01:57:56;;;;;;;60.80;24.73;;;;;;;;;;5062324;28;20033;-77
2021/12/23 02:00:25;;;;;;;63.80;25.58;;;;;;;;;;5064368;28;20033;-80
2021/12/23 02:02:52;;;;;;;57.30;23.15;;;;;;;;;;5063855;28;20063;-79
2021/12/23 02:05:19;;;;;;;54.90;22.05;;;;;;;;;;5063035;28;20438;-80
2021/12/23 02:07:45;;;;;;;61.63;24.70;;;;;;;;;;5063683;28;20021;-79
2021/12/23 02:10:11;;;;;;;58.95;25.55;;;;;;;;;;5064010;28;20032;-80
2021/12/23 02:12:37;;;;;;;54.15;24.05;;;;;;;;;;5064450;28;20040;-81
2021/12/23 02:15:04;;;;;;;59.97;25.70;;;;;;;;;;5068791;28;20052;-79
2021/12/23 02:17:34;;;;;;;58.53;24.48;;;;;;;;;;5084539;28;20024;-80
2021/12/23 02:20:00;;;;;;;54.30;23.93;;;;;;;;;;5067878;28;20060;-79
2021/12/23 02:22:26;;;;;;;57.28;23.85;;;;;;;;;;5063169;28;20073;-80
2021/12/23 02:24:52;;;;;;;57.40;24.75;;;;;;;;;;5063939;28;20052;-79
2021/12/23 02:27:18;;;;;;;64.05;26.15;;;;;;;;;;5062894;28;20024;-79
2021/12/23 02:29:44;;;;;;;52.83;23.52;;;;;;;;;;5062899;28;20453;-79
2021/12/23 02:32:10;;;;;;;60.70;24.92;;;;;;;;;;5062244;28;20029;-79
2021/12/23 02:34:36;;;;;;;57.25;26.13;;;;;;;;;;5061606;28;20399;-79
2021/12/23 02:37:02;;;;;;;61.45;24.98;;;;;;;;;;5063646;28;20033;-79
2021/12/23 02:39:29;;;;;;;64.25;24.15;;;;;;;;;;5064330;28;20021;-79
2021/12/23 02:41:55;;;;;;;63.30;24.45;;;;;;;;;;5063296;28;20051;-79
2021/12/23 02:44:21;;;;;;;51.60;21.58;;;;;;;;;;5063814;28;20052;-79
2021/12/23 02:46:47;;;;;;;55.05;24.48;;;;;;;;;;5064234;28;20025;-79
2021/12/23 02:49:13;;;;;;;61.08;23.50;;;;;;;;;;5065020;28;20066;-79
2021/12/23 02:51:39;;;;;;;66.40;25.50;;;;;;;;;;5064426;28;20029;-79
2021/12/23 02:54:05;;;;;;;59.92;23.80;;;;;;;;;;5062769;28;20032;-80
2021/12/23 02:56:32;;;;;;;61.33;24.88;;;;;;;;;;5063486;28;20105;-79
2021/12/23 02:58:58;;;;;;;50.95;23.05;;;;;;;;;;5062261;28;20025;-79
2021/12/23 03:01:24;;;;;;;58.25;23.65;;;;;;;;;;5060636;28;20033;-79
2021/12/23 03:03:51;;;;;;;62.97;26.20;;;;;;;;;;5059104;28;20075;-79
2021/12/23 03:06:18;;;;;;;59.20;24.67;;;;;;;;;;5057530;28;20400;-78
2021/12/23 03:08:49;;;;;;;56.85;24.27;;;;;;;;;;5060406;28;20025;-79
2021/12/23 03:11:16;;;;;;;53.28;22.83;;;;;;;;;;5058950;28;20216;-79
2021/12/23 03:13:43;;;;;;;58.85;23.38;;;;;;;;;;5058731;28;20420;-79
2021/12/23 03:16:09;;;;;;;61.83;26.55;;;;;;;;;;5073971;28;20364;-79
2021/12/23 03:18:35;;;;;;;58.35;24.35;;;;;;;;;;5065822;28;20028;-79
2021/12/23 03:21:01;;;;;;;62.50;24.90;;;;;;;;;;5059426;28;20095;-79
2021/12/23 03:23:27;;;;;;;69.60;26.20;;;;;;;;;;5060566;28;20104;-77
2021/12/23 03:25:53;;;;;;;65.88;24.25;;;;;;;;;;5054406;28;20116;-78
2021/12/23 03:28:19;;;;;;;59.40;23.92;;;;;;;;;;5054433;28;20630;-79
2021/12/23 03:30:46;;;;;;;61.75;22.90;;;;;;;;;;5054597;28;20029;-78
2021/12/23 03:33:12;;;;;;;58.17;25.45;;;;;;;;;;5054599;28;20040;-80
2021/12/23 03:35:39;;;;;;;57.55;23.10;;;;;;;;;;5053367;28;20035;-80
2021/12/23 03:38:05;;;;;;;57.47;23.90;;;;;;;;;;5056215;28;20032;-80
2021/12/23 03:40:31;;;;;;;56.63;22.60;;;;;;;;;;5055610;28;20064;-80
2021/12/23 03:42:57;;;;;;;52.67;22.58;;;;;;;;;;5055646;28;20120;-81
2021/12/23 03:45:23;;;;;;;51.75;23.00;;;;;;;;;;5055191;28;20025;-80
2021/12/23 03:47:50;;;;;;;56.28;23.60;;;;;;;;;;5055488;28;20024;-80
2021/12/23 03:50:20;;;;;;;63.00;24.77;;;;;;;;;;5057328;28;20046;-79
2021/12/23 03:52:47;;;;;;;60.90;24.65;;;;;;;;;;5056418;28;20504;-79
2021/12/23 03:55:14;;;;;;;56.10;24.08;;;;;;;;;;5058358;28;20074;-79
2021/12/23 03:57:40;;;;;;;65.18;25.80;;;;;;;;;;5057358;28;20029;-79
2021/12/23 04:00:07;;;;;;;62.10;24.83;;;;;;;;;;5058348;28;20025;-80
2021/12/23 04:02:34;;;;;;;60.50;24.65;;;;;;;;;;5057584;28;20104;-79
2021/12/23 04:05:00;;;;;;;59.53;24.48;;;;;;;;;;5057943;28;20031;-78
2021/12/23 04:07:26;;;;;;;58.80;26.05;;;;;;;;;;5059719;28;20076;-79
2021/12/23 04:09:52;;;;;;;64.45;24.95;;;;;;;;;;5059896;28;20168;-80
2021/12/23 04:12:18;;;;;;;61.42;24.60;;;;;;;;;;5061376;28;20040;-79
2021/12/23 04:14:44;;;;;;;63.95;26.00;;;;;;;;;;5062977;28;20028;-81
2021/12/23 04:17:10;;;;;;;63.17;24.77;;;;;;;;;;5079059;28;20042;-80
2021/12/23 04:19:36;;;;;;;66.88;26.00;;;;;;;;;;5061921;28;20059;-79
2021/12/23 04:22:02;;;;;;;62.65;25.95;;;;;;;;;;5061142;28;20029;-81
2021/12/23 04:24:28;;;;;;;61.25;25.50;;;;;;;;;;5061522;28;20027;-80
2021/12/23 04:26:54;;;;;;;52.22;22.95;;;;;;;;;;5061837;28;20084;-79
2021/12/23 04:29:20;;;;;;;64.60;25.10;;;;;;;;;;5059066;28;20020;-80
2021/12/23 04:31:46;;;;;;;54.55;23.02;;;;;;;;;;5059737;28;20036;-79
2021/12/23 04:34:12;;;;;;;49.70;22.15;;;;;;;;;;5062003;28;20029;-79
2021/12/23 04:36:38;;;;;;;55.72;23.67;;;;;;;;;;5060913;28;20064;-79
2021/12/23 04:39:05;;;;;;;57.58;23.80;;;;;;;;;;5062871;28;20025;-80
2021/12/23 04:41:32;;;;;;;61.70;25.25;;;;;;;;;;5063330;28;20025;-80
2021/12/23 04:44:31;;;;;;;;;;;;;;;;;;;;;
2021/12/23 04:57:12;;;;;;;;;;;;;;;;;;;;;
2021/12/23 05:18:27;;;;;;;;;;;;;;;;;;;;;
2021/12/23 05:27:01;;;;;;;52.53;21.42;;;;;;;;;;4876186;29;20073;-87
2021/12/23 05:33:01;;;;;;;49.47;21.02;;;;;;;;;;4861859;29;20064;-87
2021/12/23 05:41:46;;;;;;;;;;;;;;;;;;4918111;29;20107;-87
2021/12/23 05:44:20;;;;;;;45.35;19.17;;;;;;;;;;4954466;28;20357;-87
2021/12/23 05:47:24;;;;;;;;;;;;;;;;;;;;;
2021/12/23 05:53:25;;;;;;;47.65;19.75;;;;;;;;;;4984122;28;20118;-87
2021/12/23 05:56:25;;;;;;;;;;;;;;;;;;;;;
2021/12/23 06:05:03;;;;;;;52.75;19.55;;;;;;;;;;4974325;28;20022;-87
2021/12/23 06:07:32;;;;;;;47.22;18.92;;;;;;;;;;5001395;28;20049;-88
2021/12/23 06:10:00;;;;;;;51.60;21.27;;;;;;;;;;5015546;28;20025;-88
2021/12/23 06:12:35;;;;;;;54.20;20.17;;;;;;;;;;5001777;28;20041;-88
2021/12/23 06:15:07;;;;;;;46.97;20.10;;;;;;;;;;5013653;28;20046;-86
2021/12/23 06:17:48;;;;;;;55.90;21.73;;;;;;;;;;4998916;28;20034;-85
2021/12/23 06:20:16;;;;;;;51.30;20.25;;;;;;;;;;4996764;28;20038;-87
2021/12/23 06:22:49;;;;;;;44.97;21.17;;;;;;;;;;4996377;28;20038;-87
2021/12/23 06:25:18;;;;;;;48.70;21.67;;;;;;;;;;4997284;28;20070;-86
2021/12/23 06:27:50;;;;;;;52.55;21.33;;;;;;;;;;5012812;28;20502;-86
2021/12/23 06:30:51;;;;;;;50.67;21.17;;;;;;;;;;5015374;28;20133;-86
2021/12/23 06:33:29;;;;;;;57.53;22.25;;;;;;;;;;5012952;28;20057;-86
2021/12/23 06:36:06;;;;;;;49.95;20.90;;;;;;;;;;4991273;28;20030;-87
2021/12/23 06:38:35;;;;;;;46.95;21.80;;;;;;;;;;5007179;28;20104;-87
2021/12/23 06:41:12;;;;;;;41.80;19.67;;;;;;;;;;4993291;28;20030;-87
2021/12/23 06:43:40;;;;;;;53.05;21.15;;;;;;;;;;4986173;28;20028;-87
2021/12/23 06:46:25;;;;;;;47.85;19.80;;;;;;;;;;5002697;28;20023;-87
2021/12/23 06:48:51;;;;;;;49.45;20.33;;;;;;;;;;4995406;28;20031;-86
2021/12/23 06:51:22;;;;;;;48.97;20.30;;;;;;;;;;5010234;28;20029;-86
2021/12/23 06:53:57;;;;;;;;;;;;;;;;;;5000027;28;20026;-86
2021/12/23 06:56:29;;;;;;;43.67;19.17;;;;;;;;;;5007511;28;19910;-86
2021/12/23 06:58:56;;;;;;;47.30;19.00;;;;;;;;;;4995733;28;20114;-87
2021/12/23 07:01:26;;;;;;;47.63;20.02;;;;;;;;;;5015793;28;20041;-87
2021/12/23 07:04:11;;;;;;;51.30;22.25;;;;;;;;;;4998066;28;20077;-87
2021/12/23 07:06:45;;;;;;;50.95;20.65;;;;;;;;;;4995805;28;20564;-87
2021/12/23 07:09:15;;;;;;;52.88;21.52;;;;;;;;;;4992013;28;20106;-87
2021/12/23 07:11:47;;;;;;;45.60;19.27;;;;;;;;;;4996317;28;20110;-86
2021/12/23 07:17:02;;;;;;;44.92;21.23;;;;;;;;;;4978826;28;20038;-88
2021/12/23 07:19:31;;;;;;;47.92;21.15;;;;;;;;;;4975574;28;20023;-88
2021/12/23 07:22:00;;;;;;;41.10;18.73;;;;;;;;;;4980659;28;20030;-87
2021/12/23 07:24:26;;;;;;;46.97;20.73;;;;;;;;;;4995182;28;20030;-88
2021/12/23 07:26:52;;;;;;;44.15;19.10;;;;;;;;;;4996088;28;20033;-88
2021/12/23 07:29:21;;;;;;;46.72;19.98;;;;;;;;;;4995691;28;20022;-88
2021/12/23 07:31:47;;;;;;;49.17;17.75;;;;;;;;;;4997393;28;20486;-85
2021/12/23 07:34:13;;;;;;;42.75;18.88;;;;;;;;;;5013450;28;20045;-85
2021/12/23 07:36:40;;;;;;;52.53;20.40;;;;;;;;;;5003558;28;20031;-86
2021/12/23 07:39:07;;;;;;;44.80;19.73;;;;;;;;;;4998781;28;20026;-86
2021/12/23 07:41:39;;;;;;;43.40;20.00;;;;;;;;;;5006352;28;20062;-86
2021/12/23 07:44:07;;;;;;;41.30;18.95;;;;;;;;;;5014887;28;20026;-85
2021/12/23 07:46:37;;;;;;;48.60;20.80;;;;;;;;;;5012923;28;20076;-85
2021/12/23 07:49:04;;;;;;;45.27;20.27;;;;;;;;;;5013373;28;20041;-85
2021/12/23 07:51:30;;;;;;;43.22;18.88;;;;;;;;;;5005869;28;20025;-85
2021/12/23 07:53:56;;;;;;;46.20;18.98;;;;;;;;;;4997015;28;20482;-87
2021/12/23 07:56:23;;;;;;;43.83;19.23;;;;;;;;;;4999550;28;20026;-86
2021/12/23 07:58:49;;;;;;;44.13;20.40;;;;;;;;;;5001595;28;20502;-85
2021/12/23 08:01:15;;;;;;;42.25;19.60;;;;;;;;;;5016030;28;20026;-85
2021/12/23 08:03:41;;;;;;;46.20;20.15;;;;;;;;;;5014128;28;20385;-86
2021/12/23 08:06:07;;;;;;;41.65;20.60;;;;;;;;;;5014030;28;20022;-86
2021/12/23 08:08:33;;;;;;;41.88;20.45;;;;;;;;;;5013719;28;20501;-87
2021/12/23 08:11:00;;;;;;;40.95;19.38;;;;;;;;;;5008943;28;20438;-87
2021/12/23 08:13:26;;;;;;;48.70;20.05;;;;;;;;;;5015482;28;20093;-88
2021/12/23 08:15:52;;;;;;;42.72;19.58;;;;;;;;;;5019115;28;20030;-86
2021/12/23 08:18:18;;;;;;;43.25;19.70;;;;;;;;;;5018290;28;20097;-87
2021/12/23 08:20:44;;;;;;;41.65;20.05;;;;;;;;;;5017625;28;20014;-87
2021/12/23 08:23:11;;;;;;;39.83;19.48;;;;;;;;;;5018615;28;20049;-87
2021/12/23 08:25:37;;;;;;;40.63;18.48;;;;;;;;;;4994622;28;20101;-88
2021/12/23 08:28:03;;;;;;;48.00;19.85;;;;;;;;;;4995214;28;20026;-87
2021/12/23 08:30:29;;;;;;;41.10;19.05;;;;;;;;;;4993875;28;20033;-86
2021/12/23 08:32:55;;;;;;;47.03;20.85;;;;;;;;;;4993891;28;20022;-86
2021/12/23 08:35:21;;;;;;;49.30;21.95;;;;;;;;;;4999990;28;20057;-87
2021/12/23 08:37:48;;;;;;;43.55;18.33;;;;;;;;;;5013433;28;20022;-85
2021/12/23 08:40:16;;;;;;;43.35;18.70;;;;;;;;;;5012987;28;20022;-87
2021/12/23 08:42:42;;;;;;;42.45;18.90;;;;;;;;;;4997260;28;20043;-87
2021/12/23 08:45:08;;;;;;;44.00;18.90;;;;;;;;;;4993827;28;20121;-86
2021/12/23 08:47:35;;;;;;;41.05;18.55;;;;;;;;;;5007121;28;20027;-88
2021/12/23 08:50:01;;;;;;;36.85;18.10;;;;;;;;;;5005810;28;20015;-87
2021/12/23 08:52:27;;;;;;;37.30;18.85;;;;;;;;;;5005631;28;20037;-87
2021/12/23 08:54:53;;;;;;;40.08;18.45;;;;;;;;;;5002416;28;20050;-86
2021/12/23 08:57:19;;;;;;;37.72;18.20;;;;;;;;;;5002838;28;20040;-87
2021/12/23 08:59:46;;;;;;;40.15;17.65;;;;;;;;;;4995292;28;20031;-86
2021/12/23 09:02:12;;;;;;;33.50;16.35;;;;;;;;;;4993165;28;20103;-86
2021/12/23 09:04:38;;;;;;;37.35;17.73;;;;;;;;;;4992932;28;20026;-87
2021/12/23 09:07:06;;;;;;;34.97;17.65;;;;;;;;;;5005519;28;20414;-86
2021/12/23 09:09:33;;;;;;;42.05;19.10;;;;;;;;;;5007451;28;20122;-86
2021/12/23 09:12:00;;;;;;;42.92;19.17;;;;;;;;;;5022709;28;20053;-87
2021/12/23 09:14:27;;;;;;;36.22;17.17;;;;;;;;;;5036631;28;20030;-86
2021/12/23 09:16:53;;;;;;;35.42;17.98;;;;;;;;;;5020215;28;20025;-86
2021/12/23 09:22:21;;;;;;;32.40;16.67;;;;;;;;;;5004074;28;20050;-84
2021/12/23 09:40:54;;;;;;;31.98;14.80;;;;;;;;;;5014421;28;20108;-84
2021/12/23 09:43:26;;;;;;;32.90;15.13;;;;;;;;;;5016518;28;20033;-84
2021/12/23 09:45:52;;;;;;;32.38;15.07;;;;;;;;;;5055269;28;20102;-85
2021/12/23 09:48:21;;;;;;;34.60;16.80;;;;;;;;;;5075515;28;20464;-85
2021/12/23 09:50:51;;;;;;;29.30;14.52;;;;;;;;;;5076923;28;20105;-85
2021/12/23 09:56:24;;;;;;;35.08;15.57;;;;;;;;;;5028640;28;20026;-85
2021/12/23 09:58:50;;;;;;;30.00;15.73;;;;;;;;;;5036225;28;20013;-86
2021/12/23 10:01:27;;;;;;;29.63;15.10;;;;;;;;;;5035979;28;20374;-86
2021/12/23 10:03:53;;;;;;;32.67;15.10;;;;;;;;;;5017235;28;20036;-84
2021/12/23 10:06:19;;;;;;;30.02;15.60;;;;;;;;;;5034712;28;20427;-86
2021/12/23 10:08:46;;;;;;;28.35;14.40;;;;;;;;;;5035308;28;20038;-86
2021/12/23 10:11:41;;;;;;;29.50;14.30;;;;;;;;;;5012638;28;20048;-86
2021/12/23 10:31:03;;;;;;;25.38;14.60;;;;;;;;;;5036509;28;20029;-87
2021/12/23 10:33:47;;;;;;;25.33;13.73;;;;;;;;;;5018290;28;20025;-86
2021/12/23 10:38:57;;;;;;;29.60;14.77;;;;;;;;;;5023649;28;20112;-86
2021/12/23 10:41:26;;;;;;;26.75;14.63;;;;;;;;;;5015108;28;20473;-87
2021/12/23 10:43:52;;;;;;;25.40;14.50;;;;;;;;;;5032055;28;20444;-85
2021/12/23 10:46:21;;;;;;;27.05;14.65;;;;;;;;;;5035097;28;20090;-86
2021/12/23 10:49:14;;;;;;;23.10;13.18;;;;;;;;;;5017740;28;20023;-86
2021/12/23 10:51:55;;;;;;;26.58;14.85;;;;;;;;;;5031416;28;20045;-85
2021/12/23 10:57:57;;;;;;;;;;;;;;;;;;5010081;28;20037;-86
2021/12/23 11:00:12;;;;;;;24.85;13.07;;;;;;;;;;5030620;28;20031;-85
2021/12/23 11:02:40;;;;;;;26.20;13.20;;;;;;;;;;5033365;28;20029;-86
2021/12/23 11:05:15;;;;;;;26.80;13.05;;;;;;;;;;5034249;28;20029;-85
2021/12/23 11:07:45;;;;;;;25.90;13.63;;;;;;;;;;5034223;28;20104;-85
2021/12/23 11:10:19;;;;;;;27.30;13.55;;;;;;;;;;5016505;28;20029;-85
2021/12/23 11:37:53;;;;;;;22.35;11.95;;;;;;;;;;5032404;28;20048;-85
2021/12/23 11:45:27;;;;;;;24.00;11.75;;;;;;;;;;5034417;28;20026;-89
2021/12/23 11:47:53;;;;;;;22.15;11.48;;;;;;;;;;5034596;28;20097;-86
2021/12/23 11:50:30;;;;;;;21.77;11.45;;;;;;;;;;5033342;28;20025;-86
2021/12/23 11:52:56;;;;;;;21.33;11.13;;;;;;;;;;5016702;28;20029;-87
2021/12/23 11:55:23;;;;;;;22.75;11.90;;;;;;;;;;5033131;28;20072;-87
2021/12/23 11:57:50;;;;;;;24.42;11.93;;;;;;;;;;5015002;28;20037;-86
2021/12/23 12:00:31;;;;;;;23.13;11.82;;;;;;;;;;5032486;28;20026;-86
2021/12/23 12:03:01;;;;;;;23.63;11.43;;;;;;;;;;5014730;28;20476;-86
2021/12/23 12:05:27;;;;;;;21.13;11.45;;;;;;;;;;5015589;28;20026;-86
2021/12/23 12:08:14;;;;;;;23.38;12.82;;;;;;;;;;5028629;28;20381;-87
2021/12/23 12:10:41;;;;;;;22.60;11.68;;;;;;;;;;5033622;28;20116;-87
2021/12/23 12:13:09;;;;;;;20.95;10.45;;;;;;;;;;5015641;28;20025;-86
2021/12/23 12:15:38;;;;;;;26.55;11.40;;;;;;;;;;5006533;28;20025;-87
2021/12/23 12:18:06;;;;;;;21.63;10.75;;;;;;;;;;5015213;28;20093;-87
2021/12/23 12:20:45;;;;;;;24.13;11.73;;;;;;;;;;5015383;28;20022;-87
2021/12/23 12:23:19;;;;;;;21.90;11.63;;;;;;;;;;5033337;28;20045;-87
2021/12/23 12:25:53;;;;;;;21.70;11.07;;;;;;;;;;5034016;28;20032;-86
2021/12/23 12:28:23;;;;;;;20.00;10.45;;;;;;;;;;5034217;28;20488;-86
2021/12/23 12:30:54;;;;;;;20.73;10.05;;;;;;;;;;5015447;28;20080;-88
2021/12/23 12:33:20;;;;;;;;;;;;;;;;;;5032786;28;20116;-87
2021/12/23 12:35:58;;;;;;;18.70;9.23;;;;;;;;;;5016813;28;19945;-87
2021/12/23 12:38:28;;;;;;;18.25;10.65;;;;;;;;;;5032173;28;20033;-88
2021/12/23 12:40:54;;;;;;;21.48;10.20;;;;;;;;;;5033463;28;20079;-88
2021/12/23 12:43:34;;;;;;;18.23;9.65;;;;;;;;;;5033050;28;20034;-88
2021/12/23 12:46:01;;;;;;;23.67;11.55;;;;;;;;;;5033952;28;20017;-87
2021/12/23 12:48:46;;;;;;;18.80;9.68;;;;;;;;;;5016781;28;20026;-88
2021/12/23 12:51:19;;;;;;;17.33;8.88;;;;;;;;;;5033415;28;20104;-83
2021/12/23 12:53:52;;;;;;;18.33;9.10;;;;;;;;;;5032950;28;20037;-87
2021/12/23 12:56:22;;;;;;;16.35;9.20;;;;;;;;;;5027876;28;20237;-88
2021/12/23 12:58:52;;;;;;;16.88;9.88;;;;;;;;;;5016356;28;20033;-87
2021/12/23 13:01:30;;;;;;;16.98;9.10;;;;;;;;;;5032959;28;20083;-88
2021/12/23 13:03:56;;;;;;;18.02;9.35;;;;;;;;;;5015764;28;20026;-85
2021/12/23 13:06:22;;;;;;;19.40;9.98;;;;;;;;;;5015692;28;20025;-86
2021/12/23 13:08:48;;;;;;;16.92;9.05;;;;;;;;;;5015901;28;20021;-85
2021/12/23 13:11:21;;;;;;;19.35;8.75;;;;;;;;;;5029080;28;20029;-86
2021/12/23 13:13:59;;;;;;;18.75;9.93;;;;;;;;;;5029887;28;20057;-85
2021/12/23 13:16:25;;;;;;;15.23;9.35;;;;;;;;;;5017238;28;20113;-87
2021/12/23 13:19:10;;;;;;;19.65;10.00;;;;;;;;;;5017399;28;20032;-85
2021/12/23 13:21:40;;;;;;;17.23;8.82;;;;;;;;;;5034458;28;20477;-85
2021/12/23 13:24:06;;;;;;;17.13;8.52;;;;;;;;;;5033807;28;20045;-85
2021/12/23 13:26:32;;;;;;;17.75;8.88;;;;;;;;;;5020351;28;20030;-84
2021/12/23 13:29:00;;;;;;;14.95;8.93;;;;;;;;;;4995420;28;20121;-86
2021/12/23 13:31:28;;;;;;;21.52;9.63;;;;;;;;;;5020931;28;20048;-85
2021/12/23 13:33:55;;;;;;;17.90;9.05;;;;;;;;;;5033223;28;20021;-85
2021/12/23 13:36:28;;;;;;;23.92;9.30;;;;;;;;;;5032391;28;20045;-85
2021/12/23 13:38:56;;;;;;;13.45;8.07;;;;;;;;;;5014361;28;20030;-85
2021/12/23 13:41:24;;;;;;;17.13;9.10;;;;;;;;;;5015398;28;20033;-85
2021/12/23 13:43:51;;;;;;;14.40;8.25;;;;;;;;;;5029042;28;20435;-84
2021/12/23 13:46:17;;;;;;;17.30;8.98;;;;;;;;;;5017655;28;20029;-84
2021/12/23 13:48:57;;;;;;;21.35;9.45;;;;;;;;;;5015580;28;20026;-84
2021/12/23 13:51:26;;;;;;;14.90;8.57;;;;;;;;;;5036597;28;20576;-84
2021/12/23 13:54:02;;;;;;;18.02;9.10;;;;;;;;;;5037163;28;20056;-84
2021/12/23 13:56:31;;;;;;;15.90;8.50;;;;;;;;;;5019017;28;20029;-84
2021/12/23 13:59:10;;;;;;;18.40;9.43;;;;;;;;;;5033964;28;20036;-84
2021/12/23 14:02:05;;;;;;;16.85;8.50;;;;;;;;;;5017488;28;20064;-84
2021/12/23 14:04:31;;;;;;;19.13;9.38;;;;;;;;;;4991982;28;20049;-84
2021/12/23 14:06:58;;;;;;;20.80;9.88;;;;;;;;;;5035940;28;20037;-83
2021/12/23 14:09:31;;;;;;;16.00;8.70;;;;;;;;;;5018157;28;20034;-84
2021/12/23 14:11:57;;;;;;;17.15;8.50;;;;;;;;;;5026564;28;20080;-84
2021/12/23 14:14:23;;;;;;;18.80;8.38;;;;;;;;;;5031860;28;20077;-84
2021/12/23 14:16:49;;;;;;;17.92;9.32;;;;;;;;;;5037854;28;20473;-83
2021/12/23 14:19:39;;;;;;;17.50;8.27;;;;;;;;;;5060385;28;20014;-85
2021/12/23 14:24:52;;;;;;;14.20;7.82;;;;;;;;;;5042927;28;20033;-84
2021/12/23 14:27:18;;;;;;;15.43;8.27;;;;;;;;;;5035574;28;20028;-84
2021/12/23 14:29:45;;;;;;;19.67;9.15;;;;;;;;;;5035764;28;20022;-85
2021/12/23 14:32:14;;;;;;;18.85;9.13;;;;;;;;;;5036181;28;20040;-84
2021/12/23 14:34:40;;;;;;;16.15;8.43;;;;;;;;;;5041311;28;20049;-87
2021/12/23 14:37:08;;;;;;;17.08;8.27;;;;;;;;;;5046098;28;20533;-85
2021/12/23 14:39:36;;;;;;;17.58;8.60;;;;;;;;;;5040390;28;20078;-85
2021/12/23 14:42:16;;;;;;;16.40;8.13;;;;;;;;;;5036954;28;20091;-85
2021/12/23 14:44:42;;;;;;;17.95;8.10;;;;;;;;;;5035073;28;20493;-85
2021/12/23 14:47:17;;;;;;;20.23;9.02;;;;;;;;;;5035951;28;20037;-84
2021/12/23 14:52:37;;;;;;;14.15;7.93;;;;;;;;;;5035977;28;20018;-84
2021/12/23 14:55:09;;;;;;;11.75;8.05;;;;;;;;;;5023598;28;20488;-84
2021/12/23 14:57:37;;;;;;;16.65;7.63;;;;;;;;;;5036015;28;20018;-84
2021/12/23 15:00:13;;;;;;;20.20;8.55;;;;;;;;;;5022631;28;20045;-84
2021/12/23 15:02:39;;;;;;;15.10;7.88;;;;;;;;;;5036695;28;20076;-84
2021/12/23 15:05:17;;;;;;;16.73;8.52;;;;;;;;;;5014054;28;20044;-85
2021/12/23 15:07:55;;;;;;;17.10;8.52;;;;;;;;;;5029376;28;20037;-86
2021/12/23 15:10:27;;;;;;;16.27;8.20;;;;;;;;;;5029089;28;20026;-85
2021/12/23 15:12:53;;;;;;;16.08;7.95;;;;;;;;;;5017005;28;20432;-85
2021/12/23 15:15:19;;;;;;;14.95;7.78;;;;;;;;;;5016628;28;20486;-85
2021/12/23 15:17:58;;;;;;;14.43;8.10;;;;;;;;;;5016243;28;20022;-84
2021/12/23 15:20:28;;;;;;;17.27;7.90;;;;;;;;;;5015162;28;20489;-85
2021/12/23 15:22:56;;;;;;;13.35;7.20;;;;;;;;;;5033683;28;20469;-84
2021/12/23 15:25:32;;;;;;;14.93;8.02;;;;;;;;;;5030893;28;20080;-84
2021/12/23 15:27:58;;;;;;;13.60;8.02;;;;;;;;;;4999918;28;20018;-82
2021/12/23 15:30:29;;;;;;;15.90;7.88;;;;;;;;;;5016173;28;20026;-85
2021/12/23 15:32:55;;;;;;;14.25;7.68;;;;;;;;;;5034019;28;20021;-87
2021/12/23 15:35:23;;;;;;;19.40;8.05;;;;;;;;;;5035040;28;20044;-86
2021/12/23 15:37:53;;;;;;;18.70;8.35;;;;;;;;;;5017326;28;20136;-88
2021/12/23 15:40:21;;;;;;;15.25;8.10;;;;;;;;;;5015043;28;20026;-85
2021/12/23 15:42:48;;;;;;;14.73;7.43;;;;;;;;;;5029243;28;20049;-85
2021/12/23 15:45:15;;;;;;;17.92;8.90;;;;;;;;;;4996527;28;20022;-86
2021/12/23 15:47:41;;;;;;;15.68;7.97;;;;;;;;;;5029112;28;20086;-86
2021/12/23 15:50:08;;;;;;;12.30;6.82;;;;;;;;;;5019537;28;20370;-85
2021/12/23 15:52:34;;;;;;;17.45;8.30;;;;;;;;;;5019042;28;20393;-85
2021/12/23 15:55:00;;;;;;;15.10;8.07;;;;;;;;;;5032142;28;20037;-86
2021/12/23 15:57:26;;;;;;;19.25;8.60;;;;;;;;;;5029041;28;20026;-85
2021/12/23 15:59:54;;;;;;;15.13;7.32;;;;;;;;;;5034681;28;20029;-85
2021/12/23 16:02:21;;;;;;;12.80;6.78;;;;;;;;;;5033968;28;20385;-84
2021/12/23 16:07:16;;;;;;;20.80;7.75;;;;;;;;;;5034355;28;20096;-85
2021/12/23 16:07:34;;;;;;;18.55;6.95;;;;;;;;;;5033459;28;20032;-85
2021/12/23 16:10:01;;;;;;;17.20;7.90;;;;;;;;;;5023539;28;20029;-87
2021/12/23 16:12:28;;;;;;;12.52;6.63;;;;;;;;;;5013924;28;20022;-86
2021/12/23 16:14:54;;;;;;;12.10;7.40;;;;;;;;;;5033270;28;20104;-88
2021/12/23 16:17:21;;;;;;;13.32;6.50;;;;;;;;;;4996798;28;20022;-86
2021/12/23 16:19:48;;;;;;;13.88;6.43;;;;;;;;;;5032803;28;20029;-85
2021/12/23 16:22:14;;;;;;;12.00;6.93;;;;;;;;;;5034538;28;20029;-85
2021/12/23 16:24:41;;;;;;;15.82;7.15;;;;;;;;;;5038429;28;20025;-84
2021/12/23 16:27:11;;;;;;;14.50;7.60;;;;;;;;;;5037586;28;20033;-85
2021/12/23 16:29:55;;;;;;;15.20;7.40;;;;;;;;;;5034571;28;20029;-85
2021/12/23 16:32:21;;;;;;;13.52;7.32;;;;;;;;;;5034232;28;20021;-84
2021/12/23 16:34:47;;;;;;;18.88;7.82;;;;;;;;;;5034226;28;20017;-85
2021/12/23 16:37:13;;;;;;;13.15;7.20;;;;;;;;;;5034646;28;20037;-85
2021/12/23 16:39:39;;;;;;;16.02;6.85;;;;;;;;;;5034150;28;20138;-86
2021/12/23 16:42:05;;;;;;;14.68;7.70;;;;;;;;;;5033640;28;20843;-85
2021/12/23 16:44:31;;;;;;;18.63;8.05;;;;;;;;;;5036054;28;20030;-85
2021/12/23 16:46:57;;;;;;;14.25;7.70;;;;;;;;;;5034691;28;20573;-84
2021/12/23 16:49:25;;;;;;;13.85;7.72;;;;;;;;;;5016777;28;20597;-85
2021/12/23 16:51:51;;;;;;;15.80;7.75;;;;;;;;;;5036606;28;20483;-84
2021/12/23 16:54:17;;;;;;;15.00;8.07;;;;;;;;;;5006028;28;20030;-85
2021/12/23 16:59:32;;;;;;;15.88;7.22;;;;;;;;;;5037339;28;20064;-85
2021/12/23 17:01:58;;;;;;;13.50;8.10;;;;;;;;;;5035711;28;20027;-85
2021/12/23 17:04:24;;;;;;;14.32;8.18;;;;;;;;;;5035223;28;20030;-85
2021/12/23 17:06:50;;;;;;;14.45;8.35;;;;;;;;;;5015334;28;20032;-85